Terminal Aerodrome Forecast
Issued by NWS

Home | Current Version | Previous Version | Text Only | Print | Product List | Glossary On
Versions: 1 2 3 4 5 6 7 8 9 10 11 12 13 14 15 16 17 18 19 20 21 22
990
FTUS41 KPHI 201148
TAFMIV
TAF
KMIV 201148Z 2012/2112 VRB03KT P6SM OVC200
     FM201700 16005KT 6SM -RA SCT040 OVC080
     FM201900 14006KT 4SM -RA BR SCT015 OVC035
     FM210200 15004KT 4SM BR BKN008 OVC015
     FM210600 00000KT 1SM BR OVC003=

USA.gov is the U.S. government's official web portal to all federal, state and local government web resources and services.